createdAt,value
2023-03-02T00:01:48.901Z,14.32
2023-03-02T00:04:21.314Z,13.57
2023-03-02T00:06:49.106Z,16.45
2023-03-02T00:09:17.001Z,15.05
2023-03-02T00:11:45.369Z,13.77
2023-03-02T00:14:12.081Z,17.52
2023-03-02T00:16:40.199Z,14.88
2023-03-02T00:19:06.978Z,11.70
2023-03-02T00:21:33.679Z,13.30
2023-03-02T00:24:00.444Z,14.88
2023-03-02T00:26:27.128Z,14.18
2023-03-02T00:28:53.954Z,13.93
2023-03-02T00:31:21.000Z,12.27
2023-03-02T00:33:48.758Z,15.07
2023-03-02T00:36:19.153Z,15.20
2023-03-02T00:38:45.964Z,12.50
2023-03-02T00:41:13.917Z,13.25
2023-03-02T00:43:40.957Z,17.65
2023-03-02T00:46:11.726Z,13.30
2023-03-02T00:48:38.515Z,13.45
2023-03-02T00:51:07.091Z,12.27
2023-03-02T00:53:35.129Z,15.20
2023-03-02T00:56:03.125Z,14.73
2023-03-02T00:58:32.071Z,14.88
2023-03-02T01:01:00.129Z,15.75
2023-03-02T01:03:27.264Z,13.32
2023-03-02T01:05:55.340Z,12.75
2023-03-02T01:08:23.461Z,14.77
2023-03-02T01:10:50.275Z,17.92
2023-03-02T01:13:18.115Z,12.50
2023-03-02T01:15:44.991Z,12.63
2023-03-02T01:18:13.109Z,14.63
2023-03-02T01:20:39.869Z,12.52
2023-03-02T01:23:06.648Z,14.88
2023-03-02T01:25:33.413Z,13.55
2023-03-02T01:28:00.298Z,12.65
2023-03-02T01:30:27.670Z,13.82
2023-03-02T01:32:54.384Z,13.50
2023-03-02T01:35:21.172Z,11.40
2023-03-02T01:37:47.859Z,15.38
2023-03-02T01:40:14.762Z,14.48
2023-03-02T01:42:50.544Z,11.82
2023-03-02T01:45:55.237Z,12.13
2023-03-02T01:48:52.728Z,16.10
2023-03-02T01:51:29.049Z,12.63
2023-03-02T01:54:06.763Z,17.70
2023-03-02T01:56:36.573Z,13.40
2023-03-02T01:59:09.744Z,18.05
2023-03-02T02:01:38.591Z,13.23
2023-03-02T02:04:06.472Z,12.25
2023-03-02T02:06:48.171Z,13.23
2023-03-02T02:09:17.503Z,12.77
2023-03-02T02:11:44.371Z,11.70
2023-03-02T02:14:11.342Z,15.95
2023-03-02T02:16:38.808Z,17.05
2023-03-02T02:19:16.096Z,13.70
2023-03-02T02:21:42.865Z,11.20
2023-03-02T02:24:28.712Z,13.90
2023-03-02T02:26:56.401Z,15.98
2023-03-02T02:29:38.637Z,12.27
2023-03-02T02:32:14.645Z,18.63
2023-03-02T02:34:46.511Z,12.73
2023-03-02T02:37:22.844Z,11.55
2023-03-02T02:39:50.457Z,13.40
2023-03-02T02:42:23.989Z,12.35
2023-03-02T02:44:51.946Z,15.98
2023-03-02T02:47:20.242Z,14.98
2023-03-02T02:49:49.073Z,13.38
2023-03-02T02:52:18.355Z,18.77
2023-03-02T02:54:49.322Z,13.40
2023-03-02T02:57:17.899Z,11.38
2023-03-02T02:59:49.565Z,11.38
2023-03-02T03:02:26.116Z,11.00
2023-03-02T03:05:02.505Z,11.95
2023-03-02T03:07:32.283Z,13.27
2023-03-02T03:10:19.125Z,12.20
2023-03-02T03:12:46.623Z,12.02
2023-03-02T03:15:14.278Z,12.25
2023-03-02T03:17:41.038Z,16.50
2023-03-02T03:20:09.363Z,13.73
2023-03-02T03:22:40.811Z,13.30
2023-03-02T03:25:10.111Z,13.60
2023-03-02T03:27:36.793Z,14.05
2023-03-02T03:30:05.522Z,13.68
2023-03-02T03:32:35.487Z,11.30
2023-03-02T03:35:03.654Z,15.02
2023-03-02T03:37:32.579Z,12.65
2023-03-02T03:39:59.887Z,13.35
2023-03-02T03:42:27.035Z,12.68
2023-03-02T03:44:55.188Z,12.50
2023-03-02T03:47:22.483Z,11.82
2023-03-02T03:49:50.569Z,14.15
2023-03-02T03:52:17.633Z,15.35
2023-03-02T03:54:44.527Z,13.50
2023-03-02T03:57:12.415Z,13.00
2023-03-02T03:59:39.880Z,12.48
2023-03-02T04:02:06.879Z,11.98
2023-03-02T04:04:39.963Z,10.20
2023-03-02T04:07:11.545Z,11.45
2023-03-02T04:09:39.290Z,20.30
2023-03-02T04:12:08.935Z,12.82
2023-03-02T04:14:36.681Z,14.07
2023-03-02T04:17:05.472Z,10.07
2023-03-02T04:19:35.801Z,13.90
2023-03-02T04:22:04.229Z,11.00
2023-03-02T04:24:32.431Z,13.50
2023-03-02T04:27:02.025Z,12.13
2023-03-02T04:29:29.657Z,10.07
2023-03-02T04:31:56.787Z,13.45
2023-03-02T04:34:26.467Z,13.05
2023-03-02T04:36:53.762Z,13.43
2023-03-02T04:39:20.986Z,16.65
2023-03-02T04:41:51.279Z,11.20
2023-03-02T04:44:18.790Z,13.00
2023-03-02T04:46:46.591Z,15.05
2023-03-02T04:49:15.200Z,15.88
2023-03-02T04:51:44.967Z,11.05
2023-03-02T04:54:17.008Z,17.05
2023-03-02T04:56:43.837Z,11.10
2023-03-02T04:59:10.630Z,11.77
2023-03-02T05:01:37.482Z,11.55
2023-03-02T05:04:04.638Z,16.45
2023-03-02T05:06:31.890Z,12.82
2023-03-02T05:09:00.204Z,9.25
2023-03-02T05:11:27.023Z,14.27
2023-03-02T05:13:56.194Z,12.43
2023-03-02T05:16:24.287Z,9.80
2023-03-02T05:18:51.734Z,12.98
2023-03-02T05:21:19.120Z,9.55
2023-03-02T05:23:47.116Z,13.70
2023-03-02T05:26:14.850Z,11.85
2023-03-02T05:28:42.150Z,10.73
2023-03-02T05:31:10.162Z,10.15
2023-03-02T05:33:36.859Z,13.77
2023-03-02T05:36:03.762Z,11.02
2023-03-02T05:38:31.724Z,11.63
2023-03-02T05:40:58.506Z,10.25
2023-03-02T05:43:25.239Z,12.73
2023-03-02T05:45:52.004Z,8.80
2023-03-02T05:48:18.864Z,9.50
2023-03-02T05:50:45.619Z,11.70
2023-03-02T05:53:12.387Z,9.32
2023-03-02T05:55:39.091Z,16.80
2023-03-02T05:58:13.052Z,9.90
2023-03-02T06:00:40.019Z,14.20
2023-03-02T06:03:06.721Z,10.07
2023-03-02T06:05:33.487Z,11.18
2023-03-02T06:08:00.479Z,11.13
2023-03-02T06:10:27.565Z,11.88
2023-03-02T06:12:54.495Z,11.65
2023-03-02T06:15:21.230Z,11.82
2023-03-02T06:17:48.377Z,15.18
2023-03-02T06:20:15.652Z,11.88
2023-03-02T06:22:47.050Z,13.48
2023-03-02T06:25:17.997Z,9.65
2023-03-02T06:27:45.045Z,10.13
2023-03-02T06:30:15.607Z,13.85
2023-03-02T06:32:43.258Z,11.98
2023-03-02T06:35:10.784Z,10.15
2023-03-02T06:37:37.553Z,11.75
2023-03-02T06:40:08.849Z,14.18
2023-03-02T06:42:35.827Z,11.27
2023-03-02T06:45:02.675Z,11.55
2023-03-02T06:47:29.459Z,14.32
2023-03-02T06:49:57.066Z,13.30
2023-03-02T06:52:23.877Z,10.52
2023-03-02T06:54:50.523Z,8.13
2023-03-02T06:57:17.247Z,12.90
2023-03-02T06:59:43.909Z,13.45
2023-03-02T07:02:11.436Z,10.80
2023-03-02T07:04:38.297Z,16.67
2023-03-02T07:07:05.446Z,11.43
2023-03-02T07:09:35.202Z,11.52
2023-03-02T07:12:02.145Z,12.82
2023-03-02T07:14:29.002Z,11.80
2023-03-02T07:16:57.579Z,11.85
2023-03-02T07:19:24.609Z,10.45
2023-03-02T07:21:51.312Z,13.48
2023-03-02T07:24:18.093Z,9.85
2023-03-02T07:26:44.944Z,10.43
2023-03-02T07:29:11.775Z,10.05
2023-03-02T07:31:39.710Z,10.75
2023-03-02T07:34:06.464Z,11.80
2023-03-02T07:36:33.172Z,13.32
2023-03-02T07:38:59.818Z,14.27
2023-03-02T07:41:26.591Z,11.43
2023-03-02T07:43:53.342Z,11.15
2023-03-02T07:46:20.181Z,9.30
2023-03-02T07:48:46.987Z,12.50
2023-03-02T07:51:13.777Z,11.07
2023-03-02T07:53:40.452Z,13.50
2023-03-02T07:56:09.296Z,10.68
2023-03-02T07:58:37.886Z,10.18
2023-03-02T08:01:05.027Z,26.98
2023-03-02T08:03:31.768Z,14.60
2023-03-02T08:05:58.516Z,14.50
2023-03-02T08:08:25.228Z,10.15
2023-03-02T08:10:52.676Z,11.37
2023-03-02T08:13:19.489Z,10.33
2023-03-02T08:15:46.338Z,9.17
2023-03-02T08:18:16.945Z,15.30
2023-03-02T08:20:46.596Z,12.77
2023-03-02T08:23:13.357Z,11.57
2023-03-02T08:25:42.986Z,17.37
2023-03-02T08:28:09.818Z,9.50
2023-03-02T08:30:36.591Z,11.10
2023-03-02T08:33:06.965Z,12.23
2023-03-02T08:35:34.043Z,11.77
2023-03-02T08:38:00.887Z,9.53
2023-03-02T08:40:27.721Z,12.40
2023-03-02T08:42:57.530Z,11.37
2023-03-02T08:45:24.689Z,11.17
2023-03-02T08:47:54.194Z,13.53
2023-03-02T08:50:21.674Z,18.07
2023-03-02T08:52:49.982Z,10.47
2023-03-02T08:55:18.654Z,11.73
2023-03-02T08:57:45.424Z,10.80
2023-03-02T09:00:14.845Z,12.03
2023-03-02T09:02:41.878Z,9.87
2023-03-02T09:05:09.191Z,12.47
2023-03-02T09:07:36.065Z,12.10
2023-03-02T09:10:03.105Z,13.37
2023-03-02T09:12:30.011Z,12.30
2023-03-02T09:14:56.794Z,14.67
2023-03-02T09:17:23.546Z,9.77
2023-03-02T09:19:50.284Z,11.70
2023-03-02T09:22:17.613Z,11.00
2023-03-02T09:24:44.334Z,12.57
2023-03-02T09:27:11.693Z,11.07
2023-03-02T09:29:38.708Z,13.23
2023-03-02T09:32:05.917Z,12.43
2023-03-02T09:34:32.774Z,15.00
2023-03-02T09:36:59.535Z,14.17
2023-03-02T09:39:26.399Z,11.37
2023-03-02T09:42:08.374Z,14.10
2023-03-02T09:44:56.665Z,14.17
2023-03-02T09:47:36.085Z,13.13
2023-03-02T09:50:12.118Z,15.13
2023-03-02T09:52:45.123Z,10.90
2023-03-02T09:55:28.884Z,12.13
2023-03-02T09:57:56.138Z,11.70
2023-03-02T10:00:31.250Z,12.63
2023-03-02T10:03:16.667Z,10.70
2023-03-02T10:05:49.816Z,12.50
2023-03-02T10:08:29.933Z,13.03
2023-03-02T10:11:08.858Z,13.80
2023-03-02T10:13:49.291Z,13.93
2023-03-02T10:16:23.962Z,14.10
2023-03-02T10:19:05.865Z,12.53
2023-03-02T10:21:40.666Z,12.57
2023-03-02T10:24:21.750Z,14.17
2023-03-02T10:26:53.727Z,14.17
2023-03-02T10:29:20.396Z,14.93
2023-03-02T10:31:50.003Z,12.47
2023-03-02T10:34:16.748Z,12.40
2023-03-02T10:36:47.641Z,15.57
2023-03-02T10:39:15.943Z,16.27
2023-03-02T10:41:53.554Z,15.50
2023-03-02T10:44:32.193Z,20.57
2023-03-02T10:46:59.385Z,19.63
2023-03-02T10:49:36.658Z,14.47
2023-03-02T10:52:13.374Z,16.97
2023-03-02T10:54:40.279Z,17.20
2023-03-02T10:57:39.937Z,15.00
2023-03-02T11:00:21.978Z,16.30
2023-03-02T11:03:12.238Z,14.10
2023-03-02T11:05:40.075Z,15.60
2023-03-02T11:08:10.195Z,15.97
2023-03-02T11:10:42.195Z,15.53
2023-03-02T11:13:23.805Z,15.43
2023-03-02T11:15:52.343Z,15.60
2023-03-02T11:18:37.176Z,14.23
2023-03-02T11:21:06.985Z,15.77
2023-03-02T11:23:33.766Z,16.20
2023-03-02T11:26:06.604Z,16.03
2023-03-02T11:28:49.770Z,15.57
2023-03-02T11:31:43.224Z,20.57
2023-03-02T11:34:18.335Z,19.70
2023-03-02T11:37:03.825Z,20.23
2023-03-02T11:39:59.188Z,17.07
2023-03-02T11:42:29.536Z,17.03
2023-03-02T11:44:57.122Z,16.33
2023-03-02T11:47:24.051Z,17.87
2023-03-02T11:50:01.932Z,16.13
2023-03-02T11:52:31.076Z,18.60
2023-03-02T11:55:06.944Z,16.30
2023-03-02T11:57:38.684Z,15.63
2023-03-02T12:00:34.102Z,23.50
2023-03-02T12:03:03.697Z,15.90
2023-03-02T12:05:36.478Z,15.00
2023-03-02T12:08:07.102Z,14.83
2023-03-02T12:10:42.584Z,16.73
2023-03-02T12:13:21.690Z,16.47
2023-03-02T12:15:56.017Z,16.57
2023-03-02T12:18:22.860Z,20.33
2023-03-02T12:21:00.975Z,18.63
2023-03-02T12:23:29.044Z,17.87
2023-03-02T12:26:25.580Z,15.63
2023-03-02T12:29:15.757Z,20.13
2023-03-02T12:31:54.773Z,14.67
2023-03-02T12:34:26.466Z,14.83
2023-03-02T12:37:00.674Z,20.20
2023-03-02T12:39:30.801Z,16.43
2023-03-02T12:42:06.441Z,16.63
2023-03-02T12:45:02.453Z,18.73
2023-03-02T12:47:30.250Z,16.70
2023-03-02T12:50:01.314Z,22.30
2023-03-02T12:52:33.802Z,23.00
2023-03-02T12:55:21.370Z,22.13
2023-03-02T12:57:50.347Z,24.60
2023-03-02T13:00:20.385Z,23.97
2023-03-02T13:02:49.577Z,31.43
2023-03-02T13:05:25.210Z,26.03
2023-03-02T13:08:00.964Z,25.50
2023-03-02T13:10:42.123Z,27.20
2023-03-02T13:13:35.184Z,24.20
2023-03-02T13:16:06.152Z,24.50
2023-03-02T13:18:34.993Z,26.57
2023-03-02T13:21:03.682Z,21.63
2023-03-02T13:23:32.458Z,20.17
2023-03-02T13:26:01.818Z,21.53
2023-03-02T13:28:30.148Z,19.67
2023-03-02T13:31:04.298Z,16.77
2023-03-02T13:33:32.621Z,17.33
2023-03-02T13:35:59.702Z,19.20
2023-03-02T13:38:32.789Z,18.53
2023-03-02T13:40:59.561Z,19.07
2023-03-02T13:43:26.364Z,16.07
2023-03-02T13:45:58.814Z,16.17
2023-03-02T13:48:27.804Z,18.33
2023-03-02T13:51:15.320Z,19.13
2023-03-02T13:53:46.504Z,18.73
2023-03-02T13:56:15.242Z,16.00
2023-03-02T13:58:42.086Z,22.97
2023-03-02T14:01:11.254Z,15.70
2023-03-02T14:03:37.916Z,19.30
2023-03-02T14:06:06.151Z,17.10
2023-03-02T14:08:32.918Z,16.60
2023-03-02T14:11:01.237Z,15.87
2023-03-02T14:13:51.123Z,19.67
2023-03-02T14:16:18.083Z,20.77
2023-03-02T14:18:47.183Z,20.57
2023-03-02T14:21:19.230Z,17.30
2023-03-02T14:23:46.873Z,18.77
2023-03-02T14:26:32.071Z,15.43
2023-03-02T14:29:10.704Z,22.67
2023-03-02T14:31:37.590Z,17.93
2023-03-02T14:34:04.310Z,14.83
2023-03-02T14:36:33.600Z,21.47
2023-03-02T14:39:04.168Z,17.77
2023-03-02T14:41:34.338Z,21.33
2023-03-02T14:44:05.184Z,17.20
2023-03-02T14:46:31.993Z,18.77
2023-03-02T14:48:58.838Z,16.77
2023-03-02T14:51:27.453Z,18.33
2023-03-02T14:53:55.481Z,16.03
2023-03-02T14:56:25.731Z,15.83
2023-03-02T14:58:53.328Z,18.73
2023-03-02T15:01:24.169Z,16.97
2023-03-02T15:03:50.971Z,18.17
2023-03-02T15:06:38.725Z,16.47
2023-03-02T15:09:05.769Z,16.13
2023-03-02T15:11:32.784Z,20.17
2023-03-02T15:13:59.822Z,21.30
2023-03-02T15:16:26.564Z,14.87
2023-03-02T15:18:53.980Z,23.17
2023-03-02T15:21:22.710Z,22.50
2023-03-02T15:23:49.662Z,18.90
2023-03-02T15:26:16.594Z,15.40
2023-03-02T15:28:45.767Z,16.33
2023-03-02T15:31:15.508Z,18.20
2023-03-02T15:33:43.238Z,18.57
2023-03-02T15:36:10.164Z,17.70
2023-03-02T15:38:37.203Z,16.40
2023-03-02T15:41:06.089Z,16.57
2023-03-02T15:43:33.146Z,14.80
2023-03-02T15:46:00.897Z,16.20
2023-03-02T15:48:29.034Z,18.33
2023-03-02T15:50:59.752Z,15.20
2023-03-02T15:53:27.155Z,20.20
2023-03-02T15:55:54.075Z,15.13
2023-03-02T15:58:22.050Z,19.03
2023-03-02T16:00:49.701Z,15.47
2023-03-02T16:03:16.908Z,14.97
2023-03-02T16:05:43.658Z,15.30
2023-03-02T16:08:10.550Z,22.17
2023-03-02T16:10:37.707Z,17.43
2023-03-02T16:13:05.916Z,13.50
2023-03-02T16:15:42.064Z,17.63
2023-03-02T16:18:10.087Z,17.57
2023-03-02T16:20:40.062Z,15.87
2023-03-02T16:23:08.245Z,14.53
2023-03-02T16:25:38.163Z,17.20
2023-03-02T16:28:04.975Z,16.03
2023-03-02T16:30:32.464Z,17.67
2023-03-02T16:33:00.759Z,14.87
2023-03-02T16:35:29.312Z,18.27
2023-03-02T16:37:56.197Z,16.13
2023-03-02T16:40:23.593Z,16.97
2023-03-02T16:42:51.171Z,17.37
2023-03-02T16:45:19.328Z,16.93
2023-03-02T16:47:46.554Z,17.60
2023-03-02T16:50:15.591Z,24.03
2023-03-02T16:52:42.578Z,19.33
2023-03-02T16:55:15.565Z,16.27
2023-03-02T16:57:43.083Z,17.80
2023-03-02T17:00:12.964Z,16.47
2023-03-02T17:02:39.914Z,19.13
2023-03-02T17:05:06.836Z,17.97
2023-03-02T17:07:34.120Z,18.63
2023-03-02T17:10:00.872Z,17.77
2023-03-02T17:12:27.810Z,18.27
2023-03-02T17:14:54.649Z,17.43
2023-03-02T17:17:21.510Z,15.93
2023-03-02T17:19:48.235Z,21.13
2023-03-02T17:22:15.244Z,14.90
2023-03-02T17:24:41.971Z,15.47
2023-03-02T17:27:23.804Z,14.80
2023-03-02T17:29:52.347Z,18.00
2023-03-02T17:32:19.424Z,15.90
2023-03-02T17:34:46.904Z,15.53
2023-03-02T17:37:14.130Z,15.83
2023-03-02T17:39:40.869Z,14.43
2023-03-02T17:42:10.185Z,15.33
2023-03-02T17:44:40.570Z,14.00
2023-03-02T17:47:10.022Z,14.63
2023-03-02T17:49:41.246Z,14.17
2023-03-02T17:52:07.988Z,17.33
2023-03-02T17:54:35.016Z,23.07
2023-03-02T17:57:05.117Z,14.50
2023-03-02T17:59:32.124Z,15.87
2023-03-02T18:01:58.979Z,15.60
2023-03-02T18:04:25.807Z,15.00
2023-03-02T18:06:54.119Z,21.77
2023-03-02T18:09:20.895Z,17.90
2023-03-02T18:11:48.576Z,22.57
2023-03-02T18:14:19.087Z,19.07
2023-03-02T18:16:46.481Z,19.03
2023-03-02T18:19:13.804Z,19.33
2023-03-02T18:21:41.867Z,17.87
2023-03-02T18:24:09.332Z,19.30
2023-03-02T18:26:36.231Z,17.97
2023-03-02T18:29:03.004Z,19.30
2023-03-02T18:31:31.438Z,18.87
2023-03-02T18:33:59.048Z,21.10
2023-03-02T18:36:25.748Z,21.17
2023-03-02T18:38:53.946Z,22.87
2023-03-02T18:41:22.107Z,23.00
2023-03-02T18:43:49.334Z,26.07
2023-03-02T18:46:24.994Z,19.03
2023-03-02T18:48:52.879Z,21.93
2023-03-02T18:51:22.657Z,23.00
2023-03-02T18:53:51.140Z,25.63
2023-03-02T18:56:18.618Z,23.37
2023-03-02T18:58:47.359Z,24.03
2023-03-02T19:01:14.186Z,19.07
2023-03-02T19:03:41.880Z,19.93
2023-03-02T19:06:09.115Z,18.67
2023-03-02T19:08:36.160Z,17.97
2023-03-02T19:11:04.719Z,18.97
2023-03-02T19:13:31.535Z,19.13
2023-03-02T19:15:58.737Z,19.03
2023-03-02T19:18:26.125Z,19.37
2023-03-02T19:20:54.338Z,21.47
2023-03-02T19:23:21.471Z,19.40
2023-03-02T19:25:49.801Z,16.93
2023-03-02T19:28:16.755Z,20.53
2023-03-02T19:30:43.692Z,22.53
2023-03-02T19:33:10.893Z,20.03
2023-03-02T19:35:38.674Z,24.10
2023-03-02T19:38:06.896Z,17.80
2023-03-02T19:40:35.026Z,19.07
2023-03-02T19:43:02.464Z,24.93
2023-03-02T19:45:32.564Z,19.27
2023-03-02T19:48:00.699Z,19.10
2023-03-02T19:50:28.878Z,21.37
2023-03-02T19:52:57.554Z,19.20
2023-03-02T19:55:25.361Z,19.77
2023-03-02T19:57:59.788Z,19.67
2023-03-02T20:00:31.870Z,19.17
2023-03-02T20:02:59.964Z,21.37
2023-03-02T20:05:27.877Z,18.27
2023-03-02T20:07:54.960Z,18.83
2023-03-02T20:10:41.516Z,18.90
2023-03-02T20:13:09.605Z,19.43
2023-03-02T20:15:39.113Z,20.43
2023-03-02T20:18:11.822Z,20.17
2023-03-02T20:20:39.465Z,19.33
2023-03-02T20:23:06.897Z,18.33
2023-03-02T20:25:34.213Z,20.70
2023-03-02T20:28:05.650Z,19.13
2023-03-02T20:30:40.143Z,26.10
2023-03-02T20:33:08.543Z,16.83
2023-03-02T20:35:39.880Z,20.60
2023-03-02T20:38:10.479Z,17.77
2023-03-02T20:40:37.436Z,20.07
2023-03-02T20:43:05.357Z,17.90
2023-03-02T20:45:33.424Z,18.27
2023-03-02T20:48:00.619Z,21.87
2023-03-02T20:50:30.167Z,26.10
2023-03-02T20:52:57.099Z,21.43
2023-03-02T20:55:26.216Z,22.77
2023-03-02T20:57:54.498Z,20.87
2023-03-02T21:00:24.204Z,22.47
2023-03-02T21:02:51.078Z,21.60
2023-03-02T21:05:18.766Z,19.20
2023-03-02T21:07:45.819Z,17.80
2023-03-02T21:10:16.887Z,20.10
2023-03-02T21:12:44.425Z,22.93
2023-03-02T21:15:12.316Z,20.57
2023-03-02T21:17:39.142Z,19.47
2023-03-02T21:20:06.666Z,19.63
2023-03-02T21:22:33.842Z,21.07
2023-03-02T21:25:00.630Z,21.03
2023-03-02T21:27:27.457Z,25.07
2023-03-02T21:29:54.107Z,21.97
2023-03-02T21:32:21.131Z,21.60
2023-03-02T21:34:47.862Z,20.53
2023-03-02T21:37:14.740Z,23.33
2023-03-02T21:39:41.518Z,24.93
2023-03-02T21:42:08.221Z,21.37
2023-03-02T21:44:34.999Z,25.83
2023-03-02T21:47:01.734Z,24.33
2023-03-02T21:49:28.613Z,22.77
2023-03-02T21:51:55.322Z,21.83
2023-03-02T21:54:22.113Z,23.93
2023-03-02T21:56:49.172Z,24.13
2023-03-02T21:59:15.914Z,23.43
2023-03-02T22:01:44.252Z,21.73
2023-03-02T22:04:11.626Z,25.73
2023-03-02T22:06:38.376Z,23.13
2023-03-02T22:09:05.213Z,21.47
2023-03-02T22:11:35.203Z,20.23
2023-03-02T22:14:10.659Z,24.90
2023-03-02T22:16:39.447Z,23.90
2023-03-02T22:19:20.533Z,23.70
2023-03-02T22:21:48.369Z,25.10
2023-03-02T22:24:27.218Z,21.33
2023-03-02T22:26:56.936Z,21.47
2023-03-02T22:29:41.858Z,22.03
2023-03-02T22:32:20.335Z,21.23
2023-03-02T22:34:53.087Z,23.50
2023-03-02T22:37:25.607Z,21.37
2023-03-02T22:39:58.460Z,23.40
2023-03-02T22:42:27.142Z,23.07
2023-03-02T22:45:15.893Z,26.37
2023-03-02T22:47:51.530Z,22.67
2023-03-02T22:50:26.917Z,19.90
2023-03-02T22:52:59.914Z,24.37
2023-03-02T22:55:42.961Z,28.30
2023-03-02T22:58:27.916Z,24.30
2023-03-02T23:01:04.318Z,23.87
2023-03-02T23:03:38.545Z,25.93
2023-03-02T23:06:33.876Z,25.00
2023-03-02T23:09:07.261Z,23.53
2023-03-02T23:11:37.732Z,23.37
2023-03-02T23:14:28.725Z,27.00
2023-03-02T23:17:01.047Z,23.83
2023-03-02T23:19:30.132Z,23.77
2023-03-02T23:21:58.226Z,25.03
2023-03-02T23:24:25.694Z,28.47
2023-03-02T23:26:55.782Z,26.50
2023-03-02T23:29:22.931Z,27.00
2023-03-02T23:31:50.469Z,23.53
2023-03-02T23:34:17.422Z,24.70
2023-03-02T23:36:44.203Z,24.20
2023-03-02T23:39:11.359Z,27.63
2023-03-02T23:41:39.046Z,30.33
2023-03-02T23:44:07.398Z,29.53
2023-03-02T23:46:34.721Z,26.90
2023-03-02T23:49:01.501Z,24.87
2023-03-02T23:51:28.220Z,23.80
2023-03-02T23:53:55.205Z,25.53
2023-03-02T23:56:22.253Z,24.63
2023-03-02T23:58:49.210Z,28.30
